Time;durP1;ratioP1;P1;durP2;ratioP2;P2;SDS_P1;SDS_P2;PMS_P1;PMS_P2;Temp;Humidity;BMP_temperature;BMP_pressure;BME280_temperature;BME280_humidity;BME280_pressure;Samples;Min_cycle;Max_cycle;Signal;HPM_P1;HPM_P2
2021/05/11 00:00:30;;;;;;;;;;;;;;;-144.34;100.00;60189.88;5029799;28;19913;-81
2021/05/11 00:02:56;;;;;;;;;;;;;;;-144.34;100.00;60189.88;5050537;27;19936;-78
2021/05/11 00:05:21;;;;;;;;;;;;;;;-144.34;100.00;60189.88;5040575;27;19925;-79
2021/05/11 00:07:47;;;;;;;;;;;;;;;-144.34;100.00;60189.88;5032750;28;19913;-79
2021/05/11 00:10:12;;;;;;;;;;;;;;;-144.34;100.00;60189.88;5042048;27;20410;-79
2021/05/11 00:12:37;;;;;;;;;;;;;;;-144.34;100.00;60189.88;5048774;27;20569;-80
2021/05/11 00:15:03;;;;;;;;;;;;;;;-144.34;100.00;60189.88;5043361;28;19918;-80
2021/05/11 00:17:29;;;;;;;;;;;;;;;-144.34;100.00;60189.88;5017513;28;19964;-80
2021/05/11 00:19:54;;;;;;;;;;;;;;;-144.34;100.00;60189.88;5014219;28;19933;-81
2021/05/11 00:22:19;;;;;;;;;;;;;;;-144.34;100.00;60189.88;5048678;27;19963;-78
2021/05/11 00:24:45;;;;;;;;;;;;;;;-144.34;100.00;60189.88;5018642;28;19913;-79
2021/05/11 00:27:10;;;;;;;;;;;;;;;-144.34;100.00;60189.88;5026551;28;19921;-80
2021/05/11 00:29:35;;;;;;;;;;;;;;;-144.34;100.00;60189.88;5041292;28;19920;-80
2021/05/11 00:32:00;;;;;;;;;;;;;;;-144.34;100.00;60189.88;5028922;28;19936;-79
2021/05/11 00:34:26;;;;;;;;;;;;;;;-144.34;100.00;60189.88;5023461;28;20034;-81
2021/05/11 00:36:51;;;;;;;;;;;;;;;-144.34;100.00;60189.88;5027242;28;20004;-79
2021/05/11 00:39:16;;;;;;;;;;;;;;;-144.34;100.00;60189.88;5040243;28;20378;-80
2021/05/11 00:41:42;;;;;;;;;;;;;;;-144.34;100.00;60189.88;5045585;27;19913;-81
2021/05/11 00:44:23;;;;;;;;;;;;;;;-144.34;100.00;60189.88;5026247;28;19918;-80
2021/05/11 00:47:01;;;;;;;;;;;;;;;-144.34;100.00;60189.88;5039261;27;19975;-80
2021/05/11 00:49:27;;;;;;;;;;;;;;;-144.34;100.00;60189.88;5038718;28;19920;-80
2021/05/11 00:51:52;;;;;;;;;;;;;;;-144.34;100.00;60189.88;5043133;27;19921;-81
2021/05/11 00:54:17;;;;;;;;;;;;;;;-144.34;100.00;60189.88;5003007;28;19920;-80
2021/05/11 00:56:43;;;;;;;;;;;;;;;-144.34;100.00;60189.88;5036435;27;19980;-78
2021/05/11 00:59:14;;;;;;;;;;;;;;;-144.34;100.00;60189.88;5039152;28;19936;-80
2021/05/11 01:01:40;;;;;;;;;;;;;;;-144.34;100.00;60189.88;5024397;27;20326;-80
2021/05/11 01:04:05;;;;;;;;;;;;;;;-144.34;100.00;60189.88;5028609;28;19924;-79
2021/05/11 01:06:30;;;;;;;;;;;;;;;-144.34;100.00;60189.88;5040348;27;20355;-81
2021/05/11 01:08:56;;;;;;;;;;;;;;;-144.34;100.00;60189.88;5039991;27;19918;-80
2021/05/11 01:11:21;;;;;;;;;;;;;;;-144.34;100.00;60189.88;5037320;27;19978;-80
2021/05/11 01:13:46;;;;;;;;;;;;;;;-144.34;100.00;60189.88;5015283;28;20244;-80
2021/05/11 01:16:12;;;;;;;;;;;;;;;-144.34;100.00;60189.88;5038077;28;20347;-79
2021/05/11 01:18:37;;;;;;;;;;;;;;;-144.34;100.00;60189.88;5039177;27;19921;-80
2021/05/11 01:21:21;;;;;;;;;;;;;;;-144.34;100.00;60189.88;5027973;27;19920;-79
2021/05/11 01:26:30;;;;;;;;;;;;;;;-144.34;100.00;60189.88;5037039;27;19970;-80
2021/05/11 01:29:15;;;;;;;;;;;;;;;-144.34;100.00;60189.88;5029193;27;20263;-79
2021/05/11 01:32:17;;;;;;;;;;;;;;;-144.34;100.00;60189.88;5014370;28;19918;-80
2021/05/11 01:51:29;;;;;;;;;;;;;;;-144.34;100.00;60189.88;5044877;27;19967;-80
2021/05/11 02:22:59;;;;;;;;;;;;;;;-144.34;100.00;60189.88;5029349;28;20048;-81
2021/05/11 02:25:25;;;;;;;;;;;;;;;-144.34;100.00;60189.88;5020678;28;19917;-80
2021/05/11 02:27:51;;;;;;;;;;;;;;;-144.34;100.00;60189.88;5042204;28;19933;-80
2021/05/11 02:30:16;;;;;;;;;;;;;;;-144.34;100.00;60189.88;4995751;28;19959;-81
2021/05/11 02:32:42;;;;;;;;;;;;;;;-144.34;100.00;60189.88;5037289;28;19965;-79
2021/05/11 02:35:08;;;;;;;;;;;;;;;-144.34;100.00;60189.88;5023612;28;19921;-79
2021/05/11 02:37:34;;;;;;;;;;;;;;;-144.34;100.00;60189.88;5036681;28;20699;-79
2021/05/11 02:39:59;;;;;;;;;;;;;;;-144.34;100.00;60189.88;5040037;28;19918;-81
2021/05/11 02:42:25;;;;;;;;;;;;;;;-144.34;100.00;60189.88;5025717;27;20031;-80
2021/05/11 02:44:51;;;;;;;;;;;;;;;-144.34;100.00;60189.88;5006240;28;20398;-80
2021/05/11 02:47:16;;;;;;;;;;;;;;;-144.34;100.00;60189.88;5018586;28;19921;-81
2021/05/11 02:49:46;;;;;;;;;;;;;;;-144.34;100.00;60189.88;5039645;28;19921;-79
2021/05/11 02:52:12;;;;;;;;;;;;;;;-144.34;100.00;60189.88;5034042;27;19952;-81
2021/05/11 02:54:37;;;;;;;;;;;;;;;-144.34;100.00;60189.88;5016678;28;19914;-79
2021/05/11 02:57:03;;;;;;;;;;;;;;;-144.34;100.00;60189.88;5020201;28;19986;-81
2021/05/11 02:59:28;;;;;;;;;;;;;;;-144.34;100.00;60189.88;5006352;28;20457;-81
2021/05/11 03:01:54;;;;;;;;;;;;;;;-144.34;100.00;60189.88;5022418;27;19953;-81
2021/05/11 03:04:19;;;;;;;;;;;;;;;-144.34;100.00;60189.88;5019221;28;20341;-81
2021/05/11 03:06:44;;;;;;;;;;;;;;;-144.34;100.00;60189.88;5007434;28;20539;-80
2021/05/11 03:09:10;;;;;;;;;;;;;;;-144.34;100.00;60189.88;5038442;27;19925;-80
2021/05/11 03:11:35;;;;;;;;;;;;;;;-144.34;100.00;60189.88;5012037;28;20287;-79
2021/05/11 03:14:00;;;;;;;;;;;;;;;-144.34;100.00;60189.88;5032668;28;19929;-80
2021/05/11 03:16:27;;;;;;;;;;;;;;;-144.34;100.00;60189.88;5011241;28;19948;-80
2021/05/11 03:18:52;;;;;;;;;;;;;;;-144.34;100.00;60189.88;5011943;28;19922;-81
2021/05/11 03:21:18;;;;;;;;;;;;;;;-144.34;100.00;60189.88;5031635;28;19925;-81
2021/05/11 03:23:43;;;;;;;;;;;;;;;-144.34;100.00;60189.88;5001332;28;19962;-80
2021/05/11 03:26:08;;;;;;;;;;;;;;;-144.34;100.00;60189.88;5010047;28;19948;-81
2021/05/11 03:28:34;;;;;;;;;;;;;;;-144.34;100.00;60189.88;5028374;28;20302;-81
2021/05/11 03:30:59;;;;;;;;;;;;;;;-144.34;100.00;60189.88;5025977;28;19921;-80
2021/05/11 03:33:24;;;;;;;;;;;;;;;-144.34;100.00;60189.88;5027893;28;19918;-81
2021/05/11 03:35:50;;;;;;;;;;;;;;;-144.34;100.00;60189.88;5000073;28;19921;-81
2021/05/11 03:38:15;;;;;;;;;;;;;;;-144.34;100.00;60189.88;5030485;28;19920;-81
2021/05/11 03:40:40;;;;;;;;;;;;;;;-144.34;100.00;60189.88;4999011;28;20349;-82
2021/05/11 03:43:12;;;;;;;;;;;;;;;-144.34;100.00;60189.88;4998043;28;19966;-81
2021/05/11 03:45:45;;;;;;;;;;;;;;;-144.34;100.00;60189.88;5034483;28;19957;-82
2021/05/11 03:48:10;;;;;;;;;;;;;;;-144.34;100.00;60189.88;5026121;28;20359;-81
2021/05/11 03:50:35;;;;;;;;;;;;;;;-144.34;100.00;60189.88;5033062;28;19922;-82
2021/05/11 03:53:02;;;;;;;;;;;;;;;-144.34;100.00;60189.88;5046229;27;20004;-82
2021/05/11 03:55:27;;;;;;;;;;;;;;;-144.34;100.00;60189.88;5040272;27;19917;-82
2021/05/11 03:57:52;;;;;;;;;;;;;;;-144.34;100.00;60189.88;5021341;28;20298;-82
2021/05/11 04:00:18;;;;;;;;;;;;;;;-144.34;100.00;60189.88;5026845;28;19967;-80
2021/05/11 04:02:43;;;;;;;;;;;;;;;-144.34;100.00;60189.88;5012029;28;19921;-81
2021/05/11 04:05:10;;;;;;;;;;;;;;;-144.34;100.00;60189.88;4998797;28;19917;-82
2021/05/11 04:07:37;;;;;;;;;;;;;;;-144.34;100.00;60189.88;5030116;28;19921;-82
2021/05/11 04:10:06;;;;;;;;;;;;;;;-144.34;100.00;60189.88;5019206;28;20040;-80
2021/05/11 04:17:59;;;;;;;;;;;;;;;-144.34;100.00;60189.88;5033580;28;20636;-81
2021/05/11 04:20:24;;;;;;;;;;;;;;;-144.34;100.00;60189.88;5023165;28;19949;-81
2021/05/11 04:22:50;;;;;;;;;;;;;;;-144.34;100.00;60189.88;5034314;27;19929;-80
2021/05/11 04:25:15;;;;;;;;;;;;;;;-144.34;100.00;60189.88;5032541;27;19920;-80
2021/05/11 04:27:40;;;;;;;;;;;;;;;-144.34;100.00;60189.88;5018057;27;19924;-80
2021/05/11 04:30:06;;;;;;;;;;;;;;;-144.34;100.00;60189.88;5001658;28;20386;-82
2021/05/11 04:32:31;;;;;;;;;;;;;;;-144.34;100.00;60189.88;5016285;28;19914;-81
2021/05/11 04:34:57;;;;;;;;;;;;;;;-144.34;100.00;60189.88;5014783;28;20002;-79
2021/05/11 04:37:22;;;;;;;;;;;;;;;-144.34;100.00;60189.88;5035573;27;20438;-80
2021/05/11 04:39:47;;;;;;;;;;;;;;;-144.34;100.00;60189.88;5036689;27;19913;-80
2021/05/11 04:42:13;;;;;;;;;;;;;;;-144.34;100.00;60189.88;5017862;27;19921;-78
2021/05/11 04:44:39;;;;;;;;;;;;;;;-144.34;100.00;60189.88;5008459;28;19940;-79
2021/05/11 04:49:33;;;;;;;;;;;;;;;-144.34;100.00;60189.88;5025865;27;19968;-79
2021/05/11 04:51:58;;;;;;;;;;;;;;;-144.34;100.00;60189.88;5033998;27;20374;-80
2021/05/11 04:54:24;;;;;;;;;;;;;;;-144.34;100.00;60189.88;5003053;28;19917;-80
2021/05/11 04:56:49;;;;;;;;;;;;;;;-144.34;100.00;60189.88;5031168;27;19932;-80
2021/05/11 04:59:15;;;;;;;;;;;;;;;-144.34;100.00;60189.88;5010377;28;19917;-79
2021/05/11 05:01:42;;;;;;;;;;;;;;;-144.34;100.00;60189.88;5017918;27;19925;-80
2021/05/11 05:04:09;;;;;;;;;;;;;;;-144.34;100.00;60189.88;4987641;28;19970;-79
2021/05/11 05:06:35;;;;;;;;;;;;;;;-144.34;100.00;60189.88;5009769;27;19926;-79
2021/05/11 05:09:00;;;;;;;;;;;;;;;-144.34;100.00;60189.88;5020921;28;19922;-79
2021/05/11 05:11:25;;;;;;;;;;;;;;;-144.34;100.00;60189.88;5004359;27;19922;-78
2021/05/11 05:13:51;;;;;;;;;;;;;;;-144.34;100.00;60189.88;4991927;28;20332;-79
2021/05/11 05:16:16;;;;;;;;;;;;;;;-144.34;100.00;60189.88;5020905;28;19922;-79
2021/05/11 05:18:41;;;;;;;;;;;;;;;-144.34;100.00;60189.88;5018074;28;19929;-79
2021/05/11 05:21:08;;;;;;;;;;;;;;;-144.34;100.00;60189.88;5009872;27;19951;-78
2021/05/11 05:23:48;;;;;;;;;;;;;;;-144.34;100.00;60189.88;5032660;27;19914;-79
2021/05/11 05:26:20;;;;;;;;;;;;;;;-144.34;100.00;60189.88;5005544;28;19918;-79
2021/05/11 05:28:46;;;;;;;;;;;;;;;-144.34;100.00;60189.88;5003496;28;19922;-80
2021/05/11 05:31:11;;;;;;;;;;;;;;;-144.34;100.00;60189.88;5014294;28;19920;-80
2021/05/11 05:33:40;;;;;;;;;;;;;;;-144.34;100.00;60189.88;5027724;28;19928;-78
2021/05/11 05:36:06;;;;;;;;;;;;;;;-144.34;100.00;60189.88;4977108;28;19925;-78
2021/05/11 05:38:32;;;;;;;;;;;;;;;-144.34;100.00;60189.88;4993600;28;19922;-78
2021/05/11 05:41:03;;;;;;;;;;;;;;;-144.34;100.00;60189.88;4985538;28;20098;-77
2021/05/11 05:43:28;;;;;;;;;;;;;;;-144.34;100.00;60189.88;4986867;28;19921;-77
2021/05/11 05:45:54;;;;;;;;;;;;;;;-144.34;100.00;60189.88;5009141;28;19932;-76
2021/05/11 05:48:20;;;;;;;;;;;;;;;-144.34;100.00;60189.88;5012976;28;20025;-77
2021/05/11 05:50:46;;;;;;;;;;;;;;;-144.34;100.00;60189.88;4998297;28;19928;-77
2021/05/11 05:53:22;;;;;;;;;;;;;;;-144.34;100.00;60189.88;5002630;28;19997;-78
2021/05/11 05:55:48;;;;;;;;;;;;;;;-144.34;100.00;60189.88;4998712;28;19953;-78
2021/05/11 05:58:13;;;;;;;;;;;;;;;-144.34;100.00;60189.88;5018384;27;19953;-78
2021/05/11 06:00:38;;;;;;;;;;;;;;;-144.34;100.00;60189.88;5001737;28;19960;-77
2021/05/11 06:03:05;;;;;;;;;;;;;;;-144.34;100.00;60189.88;5011627;27;19921;-78
2021/05/11 06:05:31;;;;;;;;;;;;;;;-144.34;100.00;60189.88;4981726;28;19933;-77
2021/05/11 06:07:56;;;;;;;;;;;;;;;-144.34;100.00;60189.88;5003420;28;19921;-77
2021/05/11 06:10:25;;;;;;;;;;;;;;;-144.34;100.00;60189.88;4999741;28;20447;-76
2021/05/11 06:12:57;;;;;;;;;;;;;;;-144.34;100.00;60189.88;5002077;27;20390;-77
2021/05/11 06:18:06;;;;;;;;;;;;;;;-144.34;100.00;60189.88;4987286;28;19932;-77
2021/05/11 06:20:32;;;;;;;;;;;;;;;-144.34;100.00;60189.88;4987021;28;19917;-77
2021/05/11 06:22:57;;;;;;;;;;;;;;;-144.34;100.00;60189.88;4996935;28;19922;-77
2021/05/11 06:25:23;;;;;;;;;;;;;;;-144.34;100.00;60189.88;4982815;28;19992;-77
2021/05/11 06:27:54;;;;;;;;;;;;;;;-144.34;100.00;60189.88;4994726;28;20350;-76
2021/05/11 06:30:21;;;;;;;;;;;;;;;-144.34;100.00;60189.88;4979456;28;19926;-77
2021/05/11 06:32:46;;;;;;;;;;;;;;;-144.34;100.00;60189.88;5003417;28;19926;-77
2021/05/11 06:35:12;;;;;;;;;;;;;;;-144.34;100.00;60189.88;4981914;28;19921;-77
2021/05/11 06:37:37;;;;;;;;;;;;;;;-144.34;100.00;60189.88;4974937;28;19975;-76
2021/05/11 06:40:03;;;;;;;;;;;;;;;-144.34;100.00;60189.88;4983152;28;19924;-77
2021/05/11 06:42:30;;;;;;;;;;;;;;;-144.34;100.00;60189.88;4993907;28;19945;-77
2021/05/11 06:47:59;;;;;;;;;;;;;;;-144.34;100.00;60189.88;5013402;28;19991;-77
2021/05/11 06:50:40;;;;;;;;;;;;;;;-144.34;100.00;60189.88;4988683;28;19985;-77
2021/05/11 06:53:12;;;;;;;;;;;;;;;-144.34;100.00;60189.88;4998961;28;19918;-77
2021/05/11 06:55:41;;;;;;;;;;;;;;;-144.34;100.00;60189.88;5000364;28;21300;-78
2021/05/11 06:58:07;;;;;;;;;;;;;;;-144.34;100.00;60189.88;4991705;28;19929;-77
2021/05/11 07:00:32;;;;;;;;;;;;;;;-144.34;100.00;60189.88;4985251;28;20474;-77
2021/05/11 07:02:59;;;;;;;;;;;;;;;-144.34;100.00;60189.88;4998749;28;19932;-77
2021/05/11 07:05:32;;;;;;;;;;;;;;;-144.34;100.00;60189.88;4990639;28;19921;-77
2021/05/11 07:08:05;;;;;;;;;;;;;;;-144.34;100.00;60189.88;5013823;28;19925;-77
2021/05/11 07:10:34;;;;;;;;;;;;;;;-144.34;100.00;60189.88;5016550;28;19953;-77
2021/05/11 07:13:12;;;;;;;;;;;;;;;-144.34;100.00;60189.88;5004766;28;19935;-77
2021/05/11 07:15:38;;;;;;;;;;;;;;;-144.34;100.00;60189.88;4989732;28;20387;-77
2021/05/11 07:18:11;;;;;;;;;;;;;;;-144.34;100.00;60189.88;5017339;27;19957;-77
2021/05/11 07:20:37;;;;;;;;;;;;;;;-144.34;100.00;60189.88;5017510;27;19918;-77
2021/05/11 07:23:21;;;;;;;;;;;;;;;-144.34;100.00;60189.88;5022046;28;19952;-77
2021/05/11 07:30:54;;;;;;;;;;;;;;;-144.34;100.00;60189.88;5021472;28;19975;-77
2021/05/11 07:33:21;;;;;;;;;;;;;;;-144.34;100.00;60189.88;4985833;28;20420;-78
2021/05/11 07:35:46;;;;;;;;;;;;;;;-144.34;100.00;60189.88;5016324;28;19929;-77
2021/05/11 07:38:12;;;;;;;;;;;;;;;-144.34;100.00;60189.88;5013880;28;20584;-78
2021/05/11 07:40:37;;;;;;;;;;;;;;;-144.34;100.00;60189.88;4989390;28;19918;-76
2021/05/11 07:43:03;;;;;;;;;;;;;;;-144.34;100.00;60189.88;4998687;28;19944;-77
2021/05/11 07:48:17;;;;;;;;;;;;;;;-144.34;100.00;60189.88;5011249;28;19957;-77
2021/05/11 08:02:20;;;;;;;;;;;;;;;-144.34;100.00;60189.88;5035378;28;20352;-77
2021/05/11 08:17:58;;;;;;;;;;;;;;;-144.34;100.00;60189.88;5005139;28;19929;-77
2021/05/11 08:28:18;;;;;;;;;;;;;;;-144.34;100.00;60189.88;4977470;28;19925;-77
2021/05/11 08:30:45;;;;;;;;;;;;;;;-144.34;100.00;60189.88;4974902;28;19917;-78
2021/05/11 08:33:11;;;;;;;;;;;;;;;-144.34;100.00;60189.88;5008563;28;20974;-77
2021/05/11 08:35:36;;;;;;;;;;;;;;;-144.34;100.00;60189.88;4978738;28;19925;-77
2021/05/11 08:38:02;;;;;;;;;;;;;;;-144.34;100.00;60189.88;4980033;28;19925;-76
2021/05/11 08:40:27;;;;;;;;;;;;;;;-144.34;100.00;60189.88;4995218;28;19957;-77
2021/05/11 08:42:53;;;;;;;;;;;;;;;-144.34;100.00;60189.88;4966769;28;19913;-77
2021/05/11 08:45:18;;;;;;;;;;;;;;;-144.34;100.00;60189.88;4999244;28;19918;-77
2021/05/11 08:47:49;;;;;;;;;;;;;;;-144.34;100.00;60189.88;5012432;28;20064;-77
2021/05/11 08:50:26;;;;;;;;;;;;;;;-144.34;100.00;60189.88;4965947;28;19974;-76
2021/05/11 08:53:08;;;;;;;;;;;;;;;-144.34;100.00;60189.88;5011356;27;19926;-77
2021/05/11 09:15:34;;;;;;;;;;;;;;;-144.34;100.00;60189.88;5011069;28;19964;-77
2021/05/11 09:25:52;;;;;;;;;;;;;;;-144.34;100.00;60189.88;4984552;28;19974;-77
2021/05/11 09:28:25;;;;;;;;;;;;;;;-144.34;100.00;60189.88;4994824;28;19921;-77
2021/05/11 09:31:20;;;;;;;;;;;;;;;-144.34;100.00;60189.88;4987296;28;19925;-77
2021/05/11 09:34:04;;;;;;;;;;;;;;;-144.34;100.00;60189.88;5011094;28;19917;-78
2021/05/11 10:36:27;;;;;;;;;;;;;;;-144.34;100.00;60189.88;4974298;28;19936;-76
2021/05/11 10:41:09;;;;;;;;;;;;;;;-144.34;100.00;60189.88;4945307;28;19922;-76
2021/05/11 10:44:53;;;;;;;;;;;;;;;-144.34;100.00;60189.88;5015761;27;19928;-76
2021/05/11 10:49:29;;;;;;;;;;;;;;;-144.34;100.00;60189.88;4986032;28;19924;-76
2021/05/11 10:52:12;;;;;;;;;;;;;;;-144.34;100.00;60189.88;5005601;28;19933;-75
2021/05/11 10:54:50;;;;;;;;;;;;;;;-144.34;100.00;60189.88;5020585;28;19924;-76
2021/05/11 10:57:25;;;;;;;;;;;;;;;-144.34;100.00;60189.88;5022102;28;19960;-75
2021/05/11 11:00:04;;;;;;;;;;;;;;;-144.34;100.00;60189.88;4986374;28;20045;-75
2021/05/11 11:05:03;;;;;;;;;;;;;;;-144.34;100.00;60189.88;4985643;28;20004;-77
2021/05/11 11:07:32;;;;;;;;;;;;;;;-144.34;100.00;60189.88;5018482;27;19971;-76
2021/05/11 11:09:59;;;;;;;;;;;;;;;-144.34;100.00;60189.88;5002470;28;19969;-76
2021/05/11 11:12:27;;;;;;;;;;;;;;;-144.34;100.00;60189.88;5017192;27;19949;-77
2021/05/11 11:14:52;;;;;;;;;;;;;;;-144.34;100.00;60189.88;5021297;27;19921;-76
2021/05/11 11:17:17;;;;;;;;;;;;;;;-144.34;100.00;60189.88;5009723;28;19922;-75
2021/05/11 11:19:52;;;;;;;;;;;;;;;-144.34;100.00;60189.88;5013209;28;19913;-77
2021/05/11 11:25:02;;;;;;;;;;;;;;;-144.34;100.00;60189.88;5007509;28;19937;-75
2021/05/11 11:27:28;;;;;;;;;;;;;;;-144.34;100.00;60189.88;4982905;28;19924;-77
2021/05/11 11:29:57;;;;;;;;;;;;;;;-144.34;100.00;60189.88;4979243;28;19918;-76
2021/05/11 11:32:23;;;;;;;;;;;;;;;-144.34;100.00;60189.88;5001721;28;19928;-77
2021/05/11 11:34:52;;;;;;;;;;;;;;;-144.34;100.00;60189.88;4987968;28;19918;-77
2021/05/11 11:37:17;;;;;;;;;;;;;;;-144.34;100.00;60189.88;4977205;28;19930;-77
2021/05/11 11:39:43;;;;;;;;;;;;;;;-144.34;100.00;60189.88;4993982;28;19928;-77
2021/05/11 11:42:16;;;;;;;;;;;;;;;-144.34;100.00;60189.88;4988762;28;19922;-77
2021/05/11 11:44:41;;;;;;;;;;;;;;;-144.34;100.00;60189.88;4977316;28;19933;-77
2021/05/11 11:47:07;;;;;;;;;;;;;;;-144.34;100.00;60189.88;4992582;28;19918;-78
2021/05/11 11:49:38;;;;;;;;;;;;;;;-144.34;100.00;60189.88;5021744;27;20016;-77
2021/05/11 11:52:10;;;;;;;;;;;;;;;-144.34;100.00;60189.88;5016701;27;19925;-77
2021/05/11 12:00:04;;;;;;;;;;;;;;;-144.34;100.00;60189.88;5018134;28;19920;-77
2021/05/11 12:02:29;;;;;;;;;;;;;;;-144.34;100.00;60189.88;4987004;28;19921;-78
2021/05/11 12:04:55;;;;;;;;;;;;;;;-144.34;100.00;60189.88;5013512;27;19922;-81
2021/05/11 12:07:21;;;;;;;;;;;;;;;-144.34;100.00;60189.88;5021076;27;19922;-80
2021/05/11 12:09:48;;;;;;;;;;;;;;;-144.34;100.00;60189.88;5022222;28;19945;-80
2021/05/11 12:12:14;;;;;;;;;;;;;;;-144.34;100.00;60189.88;4992502;28;19922;-80
2021/05/11 12:14:40;;;;;;;;;;;;;;;-144.34;100.00;60189.88;4972788;28;20331;-80
2021/05/11 12:17:05;;;;;;;;;;;;;;;-144.34;100.00;60189.88;5007997;28;19926;-81
2021/05/11 12:19:32;;;;;;;;;;;;;;;-144.34;100.00;60189.88;5001805;28;19974;-80
2021/05/11 12:22:00;;;;;;;;;;;;;;;-144.34;100.00;60189.88;4990417;28;20012;-82
2021/05/11 12:24:34;;;;;;;;;;;;;;;-144.34;100.00;60189.88;4990442;28;19913;-82
2021/05/11 12:27:20;;;;;;;;;;;;;;;-144.34;100.00;60189.88;4976640;28;19933;-81
2021/05/11 12:30:06;;;;;;;;;;;;;;;-144.34;100.00;60189.88;5023102;28;19921;-80
2021/05/11 12:32:35;;;;;;;;;;;;;;;-144.34;100.00;60189.88;5024262;28;20163;-81
2021/05/11 12:35:07;;;;;;;;;;;;;;;-144.34;100.00;60189.88;5000234;28;19928;-81
2021/05/11 12:37:49;;;;;;;;;;;;;;;-144.34;100.00;60189.88;5024472;28;19932;-80
2021/05/11 12:40:36;;;;;;;;;;;;;;;-144.34;100.00;60189.88;5008338;28;19985;-80
2021/05/11 12:43:02;;;;;;;;;;;;;;;-144.34;100.00;60189.88;5008165;28;19922;-80
2021/05/11 12:45:39;;;;;;;;;;;;;;;-144.34;100.00;60189.88;5009651;28;19914;-81
2021/05/11 12:48:05;;;;;;;;;;;;;;;-144.34;100.00;60189.88;5025888;28;19926;-81
2021/05/11 12:50:33;;;;;;;;;;;;;;;-144.34;100.00;60189.88;5016016;28;20138;-80
2021/05/11 12:53:05;;;;;;;;;;;;;;;-144.34;100.00;60189.88;5000649;28;19922;-79
2021/05/11 12:55:54;;;;;;;;;;;;;;;-144.34;100.00;60189.88;5013987;28;20497;-79
2021/05/11 12:59:15;;;;;;;;;;;;;;;-144.34;100.00;60189.88;5006916;28;20323;-79
2021/05/11 13:01:27;;;;;;;;;;;;;;;-144.34;100.00;60189.88;4986327;28;19929;-80
2021/05/11 13:09:26;;;;;;;;;;;;;;;-144.34;100.00;60189.88;5028735;28;20045;-79
2021/05/11 13:17:06;;;;;;;;;;;;;;;-144.34;100.00;60189.88;5029691;28;19956;-80
2021/05/11 13:22:35;;;;;;;;;;;;;;;-144.34;100.00;60189.88;5023849;28;19925;-79
2021/05/11 13:25:20;;;;;;;;;;;;;;;-144.34;100.00;60189.88;5004420;28;20100;-80
2021/05/11 13:30:32;;;;;;;;;;;;;;;-144.34;100.00;60189.88;5025801;28;19968;-79
2021/05/11 13:33:09;;;;;;;;;;;;;;;-144.34;100.00;60189.88;4993863;28;19921;-79
2021/05/11 13:35:35;;;;;;;;;;;;;;;-144.34;100.00;60189.88;4992980;28;19932;-79
2021/05/11 13:38:01;;;;;;;;;;;;;;;-144.34;100.00;60189.88;4979685;28;19925;-79
2021/05/11 13:40:26;;;;;;;;;;;;;;;-144.34;100.00;60189.88;5011084;28;20210;-80
2021/05/11 13:42:52;;;;;;;;;;;;;;;-144.34;100.00;60189.88;5026357;28;20287;-80
2021/05/11 13:45:17;;;;;;;;;;;;;;;-144.34;100.00;60189.88;4998445;28;20354;-81
2021/05/11 13:47:55;;;;;;;;;;;;;;;-144.34;100.00;60189.88;5022129;28;20139;-80
2021/05/11 13:50:22;;;;;;;;;;;;;;;-144.34;100.00;60189.88;4995166;28;19952;-80
2021/05/11 13:52:47;;;;;;;;;;;;;;;-144.34;100.00;60189.88;5008143;27;19965;-80
2021/05/11 13:55:21;;;;;;;;;;;;;;;-144.34;100.00;60189.88;4999641;28;19914;-81
2021/05/11 14:03:22;;;;;;;;;;;;;;;-144.34;100.00;60189.88;5022288;28;19929;-80
2021/05/11 14:05:48;;;;;;;;;;;;;;;-144.34;100.00;60189.88;5028622;28;19918;-80
2021/05/11 14:08:13;;;;;;;;;;;;;;;-144.34;100.00;60189.88;5012630;28;19939;-79
2021/05/11 14:10:40;;;;;;;;;;;;;;;-144.34;100.00;60189.88;5009415;28;20383;-79
2021/05/11 14:13:05;;;;;;;;;;;;;;;-144.34;100.00;60189.88;5009176;28;19921;-79
2021/05/11 14:15:32;;;;;;;;;;;;;;;-144.34;100.00;60189.88;5027117;27;19929;-79
2021/05/11 14:17:58;;;;;;;;;;;;;;;-144.34;100.00;60189.88;4996083;28;19930;-79
2021/05/11 14:20:23;;;;;;;;;;;;;;;-144.34;100.00;60189.88;4997454;28;20063;-79
2021/05/11 14:22:49;;;;;;;;;;;;;;;-144.34;100.00;60189.88;4979029;28;19918;-77
2021/05/11 14:25:14;;;;;;;;;;;;;;;-144.34;100.00;60189.88;5005515;28;19945;-77
2021/05/11 14:27:39;;;;;;;;;;;;;;;-144.34;100.00;60189.88;4981725;28;19918;-78
2021/05/11 14:30:05;;;;;;;;;;;;;;;-144.34;100.00;60189.88;4985340;28;19922;-78
2021/05/11 14:32:30;;;;;;;;;;;;;;;-144.34;100.00;60189.88;5016789;28;19917;-78
2021/05/11 14:34:56;;;;;;;;;;;;;;;-144.34;100.00;60189.88;5000663;28;19990;-78
2021/05/11 14:37:21;;;;;;;;;;;;;;;-144.34;100.00;60189.88;4989793;28;19976;-78
2021/05/11 14:39:46;;;;;;;;;;;;;;;-144.34;100.00;60189.88;5013371;28;19941;-78
2021/05/11 14:42:12;;;;;;;;;;;;;;;-144.34;100.00;60189.88;5003024;28;19925;-79
2021/05/11 14:44:37;;;;;;;;;;;;;;;-144.34;100.00;60189.88;4991996;28;20355;-78
2021/05/11 14:47:03;;;;;;;;;;;;;;;-144.34;100.00;60189.88;4996495;28;19922;-78
2021/05/11 14:49:28;;;;;;;;;;;;;;;-144.34;100.00;60189.88;5004836;28;20756;-78
2021/05/11 14:51:53;;;;;;;;;;;;;;;-144.34;100.00;60189.88;5005229;28;20016;-78
2021/05/11 14:54:19;;;;;;;;;;;;;;;-144.34;100.00;60189.88;4989670;28;19925;-79
2021/05/11 14:56:45;;;;;;;;;;;;;;;-144.34;100.00;60189.88;5006072;28;20146;-78
2021/05/11 14:59:10;;;;;;;;;;;;;;;-144.34;100.00;60189.88;4988032;28;19937;-79
2021/05/11 15:01:36;;;;;;;;;;;;;;;-144.34;100.00;60189.88;4971578;28;19956;-78
2021/05/11 15:04:01;;;;;;;;;;;;;;;-144.34;100.00;60189.88;5003191;28;19932;-78
2021/05/11 15:06:27;;;;;;;;;;;;;;;-144.34;100.00;60189.88;4995640;28;19939;-78
2021/05/11 15:08:53;;;;;;;;;;;;;;;-144.34;100.00;60189.88;5000469;28;19953;-78
2021/05/11 15:11:18;;;;;;;;;;;;;;;-144.34;100.00;60189.88;4992587;28;20416;-78
2021/05/11 15:13:45;;;;;;;;;;;;;;;-144.34;100.00;60189.88;4986758;28;19926;-78
2021/05/11 15:16:13;;;;;;;;;;;;;;;-144.34;100.00;60189.88;4995561;28;19922;-78
2021/05/11 15:18:38;;;;;;;;;;;;;;;-144.34;100.00;60189.88;4981698;28;20742;-78
2021/05/11 15:21:03;;;;;;;;;;;;;;;-144.34;100.00;60189.88;5002250;28;19922;-77
2021/05/11 15:23:29;;;;;;;;;;;;;;;-144.34;100.00;60189.88;5002913;28;19929;-78
2021/05/11 15:25:55;;;;;;;;;;;;;;;-144.34;100.00;60189.88;5018902;28;19914;-78
2021/05/11 15:28:20;;;;;;;;;;;;;;;-144.34;100.00;60189.88;5017807;28;19926;-77
2021/05/11 15:30:46;;;;;;;;;;;;;;;-144.34;100.00;60189.88;4984983;28;20529;-77
2021/05/11 15:33:12;;;;;;;;;;;;;;;-144.34;100.00;60189.88;4984305;28;19925;-77
2021/05/11 15:35:38;;;;;;;;;;;;;;;-144.34;100.00;60189.88;4983541;28;19921;-77
2021/05/11 15:38:04;;;;;;;;;;;;;;;-144.34;100.00;60189.88;4996663;28;20290;-77
2021/05/11 15:40:36;;;;;;;;;;;;;;;-144.34;100.00;60189.88;4997424;28;19918;-77
2021/05/11 15:43:03;;;;;;;;;;;;;;;-144.34;100.00;60189.88;4985628;28;19933;-77
2021/05/11 15:45:29;;;;;;;;;;;;;;;-144.34;100.00;60189.88;4982031;28;19929;-76
2021/05/11 15:48:01;;;;;;;;;;;;;;;-144.34;100.00;60189.88;4990621;28;19922;-77
2021/05/11 15:50:30;;;;;;;;;;;;;;;-144.34;100.00;60189.88;4970033;28;19940;-77
2021/05/11 15:52:56;;;;;;;;;;;;;;;-144.34;100.00;60189.88;4990459;28;20392;-77
2021/05/11 15:55:22;;;;;;;;;;;;;;;-144.34;100.00;60189.88;5002211;28;19923;-76
2021/05/11 15:57:51;;;;;;;;;;;;;;;-144.34;100.00;60189.88;4985985;28;19971;-77
2021/05/11 16:00:16;;;;;;;;;;;;;;;-144.34;100.00;60189.88;5004627;28;20550;-76
2021/05/11 16:02:42;;;;;;;;;;;;;;;-144.34;100.00;60189.88;4996319;28;19922;-77
2021/05/11 16:05:07;;;;;;;;;;;;;;;-144.34;100.00;60189.88;5016884;28;19929;-76
2021/05/11 16:07:34;;;;;;;;;;;;;;;-144.34;100.00;60189.88;5014708;28;19917;-77
2021/05/11 16:10:00;;;;;;;;;;;;;;;-144.34;100.00;60189.88;5014907;28;19914;-77